sensor_id;sensor_type;location;lat;lon;timestamp;P1;durP1;ratioP1;P2;durP2;ratioP2
64936;SDS011;51452;47.698;19.050;2023-06-10T00:02:15;2.95;;;2.60;;
64936;SDS011;51452;47.698;19.050;2023-06-10T00:04:42;4.57;;;2.60;;
64936;SDS011;51452;47.698;19.050;2023-06-10T00:07:07;4.72;;;2.60;;
64936;SDS011;51452;47.698;19.050;2023-06-10T00:09:33;3.20;;;2.47;;
64936;SDS011;51452;47.698;19.050;2023-06-10T00:12:01;2.80;;;2.50;;
64936;SDS011;51452;47.698;19.050;2023-06-10T00:14:27;3.60;;;2.60;;
64936;SDS011;51452;47.698;19.050;2023-06-10T00:16:52;3.72;;;2.33;;
64936;SDS011;51452;47.698;19.050;2023-06-10T00:19:18;4.18;;;2.72;;
64936;SDS011;51452;47.698;19.050;2023-06-10T00:21:43;3.53;;;2.42;;
64936;SDS011;51452;47.698;19.050;2023-06-10T00:24:10;4.88;;;2.85;;
64936;SDS011;51452;47.698;19.050;2023-06-10T00:26:37;4.43;;;2.80;;
64936;SDS011;51452;47.698;19.050;2023-06-10T00:29:03;5.40;;;3.05;;
64936;SDS011;51452;47.698;19.050;2023-06-10T00:31:28;4.75;;;2.80;;
64936;SDS011;51452;47.698;19.050;2023-06-10T00:33:55;5.70;;;2.90;;
64936;SDS011;51452;47.698;19.050;2023-06-10T00:36:20;9.40;;;2.97;;
64936;SDS011;51452;47.698;19.050;2023-06-10T00:38:46;4.25;;;2.70;;
64936;SDS011;51452;47.698;19.050;2023-06-10T00:41:11;3.30;;;2.80;;
64936;SDS011;51452;47.698;19.050;2023-06-10T00:43:37;4.13;;;2.80;;
64936;SDS011;51452;47.698;19.050;2023-06-10T00:46:02;10.95;;;2.70;;
64936;SDS011;51452;47.698;19.050;2023-06-10T00:48:27;4.03;;;2.55;;
64936;SDS011;51452;47.698;19.050;2023-06-10T00:50:53;4.03;;;2.65;;
64936;SDS011;51452;47.698;19.050;2023-06-10T00:53:19;4.25;;;2.47;;
64936;SDS011;51452;47.698;19.050;2023-06-10T00:55:45;5.20;;;2.47;;
64936;SDS011;51452;47.698;19.050;2023-06-10T00:58:11;5.65;;;3.17;;
64936;SDS011;51452;47.698;19.050;2023-06-10T01:00:37;4.65;;;2.70;;
64936;SDS011;51452;47.698;19.050;2023-06-10T01:03:03;4.60;;;3.10;;
64936;SDS011;51452;47.698;19.050;2023-06-10T01:05:33;4.07;;;3.05;;
64936;SDS011;51452;47.698;19.050;2023-06-10T01:13:09;3.25;;;2.60;;
64936;SDS011;51452;47.698;19.050;2023-06-10T01:15:37;5.65;;;2.88;;
64936;SDS011;51452;47.698;19.050;2023-06-10T01:20:30;3.63;;;2.80;;
64936;SDS011;51452;47.698;19.050;2023-06-10T01:22:57;4.10;;;2.70;;
64936;SDS011;51452;47.698;19.050;2023-06-10T01:25:24;2.95;;;2.22;;
64936;SDS011;51452;47.698;19.050;2023-06-10T01:28:01;7.70;;;2.60;;
64936;SDS011;51452;47.698;19.050;2023-06-10T01:30:30;11.55;;;2.63;;
64936;SDS011;51452;47.698;19.050;2023-06-10T01:33:02;4.00;;;2.80;;
64936;SDS011;51452;47.698;19.050;2023-06-10T01:35:31;6.00;;;2.60;;
64936;SDS011;51452;47.698;19.050;2023-06-10T01:37:58;4.82;;;2.75;;
64936;SDS011;51452;47.698;19.050;2023-06-10T01:40:26;8.52;;;2.67;;
64936;SDS011;51452;47.698;19.050;2023-06-10T01:42:51;5.38;;;2.67;;
64936;SDS011;51452;47.698;19.050;2023-06-10T01:45:17;3.33;;;2.63;;
64936;SDS011;51452;47.698;19.050;2023-06-10T01:47:42;4.60;;;2.75;;
64936;SDS011;51452;47.698;19.050;2023-06-10T01:50:08;6.50;;;2.60;;
64936;SDS011;51452;47.698;19.050;2023-06-10T01:52:34;4.07;;;2.40;;
64936;SDS011;51452;47.698;19.050;2023-06-10T01:54:59;3.70;;;2.90;;
64936;SDS011;51452;47.698;19.050;2023-06-10T01:57:25;5.07;;;2.90;;
64936;SDS011;51452;47.698;19.050;2023-06-10T01:59:50;5.72;;;2.47;;
64936;SDS011;51452;47.698;19.050;2023-06-10T02:02:15;4.65;;;2.78;;
64936;SDS011;51452;47.698;19.050;2023-06-10T02:04:41;5.40;;;2.70;;
64936;SDS011;51452;47.698;19.050;2023-06-10T02:07:06;5.03;;;2.90;;
64936;SDS011;51452;47.698;19.050;2023-06-10T02:09:31;3.30;;;2.78;;
64936;SDS011;51452;47.698;19.050;2023-06-10T02:11:59;5.07;;;2.55;;
64936;SDS011;51452;47.698;19.050;2023-06-10T02:14:25;2.80;;;2.30;;
64936;SDS011;51452;47.698;19.050;2023-06-10T02:16:50;5.13;;;2.60;;
64936;SDS011;51452;47.698;19.050;2023-06-10T02:19:17;4.15;;;2.58;;
64936;SDS011;51452;47.698;19.050;2023-06-10T02:21:46;3.85;;;2.60;;
64936;SDS011;51452;47.698;19.050;2023-06-10T02:24:11;4.15;;;2.90;;
64936;SDS011;51452;47.698;19.050;2023-06-10T02:26:37;4.72;;;2.65;;
64936;SDS011;51452;47.698;19.050;2023-06-10T02:29:02;5.10;;;3.00;;
64936;SDS011;51452;47.698;19.050;2023-06-10T02:31:28;4.07;;;2.70;;
64936;SDS011;51452;47.698;19.050;2023-06-10T02:33:53;3.40;;;2.85;;
64936;SDS011;51452;47.698;19.050;2023-06-10T02:36:19;5.35;;;3.00;;
64936;SDS011;51452;47.698;19.050;2023-06-10T02:38:46;5.05;;;2.88;;
64936;SDS011;51452;47.698;19.050;2023-06-10T02:41:12;5.03;;;3.15;;
64936;SDS011;51452;47.698;19.050;2023-06-10T02:43:37;4.53;;;2.92;;
64936;SDS011;51452;47.698;19.050;2023-06-10T02:46:02;5.10;;;3.00;;
64936;SDS011;51452;47.698;19.050;2023-06-10T02:48:28;5.22;;;2.70;;
64936;SDS011;51452;47.698;19.050;2023-06-10T02:50:53;3.30;;;2.50;;
64936;SDS011;51452;47.698;19.050;2023-06-10T02:53:20;6.25;;;2.95;;
64936;SDS011;51452;47.698;19.050;2023-06-10T02:55:46;4.53;;;3.00;;
64936;SDS011;51452;47.698;19.050;2023-06-10T02:58:11;4.15;;;2.88;;
64936;SDS011;51452;47.698;19.050;2023-06-10T03:00:36;3.38;;;3.00;;
64936;SDS011;51452;47.698;19.050;2023-06-10T03:03:02;4.80;;;2.90;;
64936;SDS011;51452;47.698;19.050;2023-06-10T03:05:29;6.05;;;2.63;;
64936;SDS011;51452;47.698;19.050;2023-06-10T03:07:55;2.95;;;2.33;;
64936;SDS011;51452;47.698;19.050;2023-06-10T03:10:20;4.78;;;2.70;;
64936;SDS011;51452;47.698;19.050;2023-06-10T03:12:46;4.90;;;2.50;;
64936;SDS011;51452;47.698;19.050;2023-06-10T03:15:11;4.30;;;2.22;;
64936;SDS011;51452;47.698;19.050;2023-06-10T03:17:37;4.57;;;2.35;;
64936;SDS011;51452;47.698;19.050;2023-06-10T03:20:03;3.50;;;2.47;;
64936;SDS011;51452;47.698;19.050;2023-06-10T03:22:33;4.68;;;2.28;;
64936;SDS011;51452;47.698;19.050;2023-06-10T03:24:58;6.05;;;2.65;;
64936;SDS011;51452;47.698;19.050;2023-06-10T03:27:24;4.30;;;2.30;;
64936;SDS011;51452;47.698;19.050;2023-06-10T03:29:50;6.75;;;2.40;;
64936;SDS011;51452;47.698;19.050;2023-06-10T03:32:15;4.57;;;2.15;;
64936;SDS011;51452;47.698;19.050;2023-06-10T03:34:41;3.90;;;2.53;;
64936;SDS011;51452;47.698;19.050;2023-06-10T03:37:06;3.92;;;2.17;;
64936;SDS011;51452;47.698;19.050;2023-06-10T03:39:32;2.58;;;2.13;;
64936;SDS011;51452;47.698;19.050;2023-06-10T03:41:57;3.35;;;2.47;;
64936;SDS011;51452;47.698;19.050;2023-06-10T03:44:24;3.80;;;2.83;;
64936;SDS011;51452;47.698;19.050;2023-06-10T03:46:51;5.82;;;3.10;;
64936;SDS011;51452;47.698;19.050;2023-06-10T03:49:16;3.92;;;2.28;;
64936;SDS011;51452;47.698;19.050;2023-06-10T03:51:42;5.93;;;2.22;;
64936;SDS011;51452;47.698;19.050;2023-06-10T03:54:08;6.97;;;2.38;;
64936;SDS011;51452;47.698;19.050;2023-06-10T03:56:33;3.67;;;2.50;;
64936;SDS011;51452;47.698;19.050;2023-06-10T03:58:59;3.60;;;2.10;;
64936;SDS011;51452;47.698;19.050;2023-06-10T04:01:25;2.80;;;2.40;;
64936;SDS011;51452;47.698;19.050;2023-06-10T04:03:50;3.28;;;2.17;;
64936;SDS011;51452;47.698;19.050;2023-06-10T04:06:18;3.22;;;2.58;;
64936;SDS011;51452;47.698;19.050;2023-06-10T04:08:44;9.55;;;2.50;;
64936;SDS011;51452;47.698;19.050;2023-06-10T04:11:09;5.00;;;2.28;;
64936;SDS011;51452;47.698;19.050;2023-06-10T04:13:35;5.95;;;2.30;;
64936;SDS011;51452;47.698;19.050;2023-06-10T04:16:01;3.63;;;2.30;;
64936;SDS011;51452;47.698;19.050;2023-06-10T04:18:27;3.53;;;2.40;;
64936;SDS011;51452;47.698;19.050;2023-06-10T04:20:53;3.58;;;2.50;;
64936;SDS011;51452;47.698;19.050;2023-06-10T04:23:18;6.55;;;3.17;;
64936;SDS011;51452;47.698;19.050;2023-06-10T04:25:44;5.53;;;2.30;;
64936;SDS011;51452;47.698;19.050;2023-06-10T04:28:09;4.57;;;2.30;;
64936;SDS011;51452;47.698;19.050;2023-06-10T04:30:35;3.00;;;2.33;;
64936;SDS011;51452;47.698;19.050;2023-06-10T04:33:00;3.63;;;2.20;;
64936;SDS011;51452;47.698;19.050;2023-06-10T04:35:25;4.63;;;2.42;;
64936;SDS011;51452;47.698;19.050;2023-06-10T04:37:54;3.63;;;2.30;;
64936;SDS011;51452;47.698;19.050;2023-06-10T04:40:19;5.28;;;2.70;;
64936;SDS011;51452;47.698;19.050;2023-06-10T04:42:44;3.65;;;2.33;;
64936;SDS011;51452;47.698;19.050;2023-06-10T04:45:10;3.67;;;2.72;;
64936;SDS011;51452;47.698;19.050;2023-06-10T04:47:36;4.60;;;2.83;;
64936;SDS011;51452;47.698;19.050;2023-06-10T04:50:02;10.32;;;3.30;;
64936;SDS011;51452;47.698;19.050;2023-06-10T04:52:28;5.50;;;2.75;;
64936;SDS011;51452;47.698;19.050;2023-06-10T04:54:53;3.17;;;2.63;;
64936;SDS011;51452;47.698;19.050;2023-06-10T04:57:19;8.10;;;2.85;;
64936;SDS011;51452;47.698;19.050;2023-06-10T04:59:45;4.30;;;2.78;;
64936;SDS011;51452;47.698;19.050;2023-06-10T05:02:11;3.10;;;2.33;;
64936;SDS011;51452;47.698;19.050;2023-06-10T05:04:36;7.35;;;3.00;;
64936;SDS011;51452;47.698;19.050;2023-06-10T05:07:01;4.75;;;2.88;;
64936;SDS011;51452;47.698;19.050;2023-06-10T05:09:27;3.22;;;2.88;;
64936;SDS011;51452;47.698;19.050;2023-06-10T05:11:52;4.28;;;2.95;;
64936;SDS011;51452;47.698;19.050;2023-06-10T05:14:21;6.13;;;3.42;;
64936;SDS011;51452;47.698;19.050;2023-06-10T05:16:47;6.00;;;3.40;;
64936;SDS011;51452;47.698;19.050;2023-06-10T05:19:13;4.88;;;3.05;;
64936;SDS011;51452;47.698;19.050;2023-06-10T05:21:38;4.18;;;3.03;;
64936;SDS011;51452;47.698;19.050;2023-06-10T05:24:03;4.22;;;3.15;;
64936;SDS011;51452;47.698;19.050;2023-06-10T05:26:29;6.30;;;3.33;;
64936;SDS011;51452;47.698;19.050;2023-06-10T05:28:56;4.15;;;3.10;;
64936;SDS011;51452;47.698;19.050;2023-06-10T05:31:22;3.90;;;3.15;;
64936;SDS011;51452;47.698;19.050;2023-06-10T05:33:47;3.80;;;3.30;;
64936;SDS011;51452;47.698;19.050;2023-06-10T05:36:12;3.83;;;3.20;;
64936;SDS011;51452;47.698;19.050;2023-06-10T05:38:38;4.30;;;2.88;;
64936;SDS011;51452;47.698;19.050;2023-06-10T05:41:03;7.63;;;3.15;;
64936;SDS011;51452;47.698;19.050;2023-06-10T05:43:29;4.68;;;3.28;;
64936;SDS011;51452;47.698;19.050;2023-06-10T05:45:54;4.18;;;3.45;;
64936;SDS011;51452;47.698;19.050;2023-06-10T05:48:19;3.63;;;3.20;;
64936;SDS011;51452;47.698;19.050;2023-06-10T05:50:45;5.00;;;3.20;;
64936;SDS011;51452;47.698;19.050;2023-06-10T05:53:13;4.65;;;3.40;;
64936;SDS011;51452;47.698;19.050;2023-06-10T05:55:41;4.03;;;3.55;;
64936;SDS011;51452;47.698;19.050;2023-06-10T05:58:10;3.35;;;2.80;;
64936;SDS011;51452;47.698;19.050;2023-06-10T06:00:37;4.25;;;3.40;;
64936;SDS011;51452;47.698;19.050;2023-06-10T06:03:03;4.18;;;3.55;;
64936;SDS011;51452;47.698;19.050;2023-06-10T06:05:28;4.35;;;3.53;;
64936;SDS011;51452;47.698;19.050;2023-06-10T06:08:00;7.20;;;3.95;;
64936;SDS011;51452;47.698;19.050;2023-06-10T06:10:26;6.25;;;3.85;;
64936;SDS011;51452;47.698;19.050;2023-06-10T06:12:51;4.32;;;3.10;;
64936;SDS011;51452;47.698;19.050;2023-06-10T06:15:17;4.72;;;3.58;;
64936;SDS011;51452;47.698;19.050;2023-06-10T06:17:42;5.07;;;3.47;;
64936;SDS011;51452;47.698;19.050;2023-06-10T06:20:08;4.82;;;3.20;;
64936;SDS011;51452;47.698;19.050;2023-06-10T06:22:33;3.78;;;3.25;;
64936;SDS011;51452;47.698;19.050;2023-06-10T06:24:58;3.70;;;3.15;;
64936;SDS011;51452;47.698;19.050;2023-06-10T06:27:24;4.15;;;3.33;;
64936;SDS011;51452;47.698;19.050;2023-06-10T06:29:49;5.88;;;3.47;;
64936;SDS011;51452;47.698;19.050;2023-06-10T06:32:15;5.32;;;3.08;;
64936;SDS011;51452;47.698;19.050;2023-06-10T06:34:41;4.28;;;3.05;;
64936;SDS011;51452;47.698;19.050;2023-06-10T06:37:06;5.03;;;3.30;;
64936;SDS011;51452;47.698;19.050;2023-06-10T06:39:32;3.83;;;2.97;;
64936;SDS011;51452;47.698;19.050;2023-06-10T06:41:57;4.65;;;3.10;;
64936;SDS011;51452;47.698;19.050;2023-06-10T06:44:22;3.83;;;2.85;;
64936;SDS011;51452;47.698;19.050;2023-06-10T06:46:48;4.13;;;3.25;;
64936;SDS011;51452;47.698;19.050;2023-06-10T06:49:13;4.35;;;3.22;;
64936;SDS011;51452;47.698;19.050;2023-06-10T06:51:39;3.83;;;3.10;;
64936;SDS011;51452;47.698;19.050;2023-06-10T06:54:04;3.50;;;3.08;;
64936;SDS011;51452;47.698;19.050;2023-06-10T06:56:30;4.65;;;3.20;;
64936;SDS011;51452;47.698;19.050;2023-06-10T06:58:56;3.28;;;2.90;;
64936;SDS011;51452;47.698;19.050;2023-06-10T07:01:21;3.65;;;3.00;;
64936;SDS011;51452;47.698;19.050;2023-06-10T07:03:47;3.95;;;2.83;;
64936;SDS011;51452;47.698;19.050;2023-06-10T07:06:12;4.25;;;3.03;;
64936;SDS011;51452;47.698;19.050;2023-06-10T07:08:38;4.78;;;2.83;;
64936;SDS011;51452;47.698;19.050;2023-06-10T07:11:03;5.28;;;3.20;;
64936;SDS011;51452;47.698;19.050;2023-06-10T07:13:29;3.67;;;3.20;;
64936;SDS011;51452;47.698;19.050;2023-06-10T07:15:54;4.43;;;3.25;;
64936;SDS011;51452;47.698;19.050;2023-06-10T07:18:19;5.63;;;3.35;;
64936;SDS011;51452;47.698;19.050;2023-06-10T07:20:45;3.83;;;2.88;;
64936;SDS011;51452;47.698;19.050;2023-06-10T07:23:10;4.45;;;3.00;;
64936;SDS011;51452;47.698;19.050;2023-06-10T07:25:36;7.90;;;3.38;;
64936;SDS011;51452;47.698;19.050;2023-06-10T07:28:01;7.35;;;3.55;;
64936;SDS011;51452;47.698;19.050;2023-06-10T07:30:27;6.55;;;3.60;;
64936;SDS011;51452;47.698;19.050;2023-06-10T07:32:52;4.07;;;3.30;;
64936;SDS011;51452;47.698;19.050;2023-06-10T07:35:19;4.43;;;3.13;;
64936;SDS011;51452;47.698;19.050;2023-06-10T07:37:44;6.28;;;3.25;;
64936;SDS011;51452;47.698;19.050;2023-06-10T07:40:10;4.53;;;3.03;;
64936;SDS011;51452;47.698;19.050;2023-06-10T07:42:36;3.90;;;2.97;;
64936;SDS011;51452;47.698;19.050;2023-06-10T07:45:02;3.28;;;2.78;;
64936;SDS011;51452;47.698;19.050;2023-06-10T07:47:29;4.95;;;2.80;;
64936;SDS011;51452;47.698;19.050;2023-06-10T07:49:54;3.65;;;2.80;;
64936;SDS011;51452;47.698;19.050;2023-06-10T07:52:20;3.10;;;2.50;;
64936;SDS011;51452;47.698;19.050;2023-06-10T07:54:45;3.25;;;2.83;;
64936;SDS011;51452;47.698;19.050;2023-06-10T07:57:11;5.13;;;2.60;;
64936;SDS011;51452;47.698;19.050;2023-06-10T07:59:36;6.13;;;3.30;;
64936;SDS011;51452;47.698;19.050;2023-06-10T08:02:01;3.42;;;3.00;;
64936;SDS011;51452;47.698;19.050;2023-06-10T08:04:27;3.42;;;2.83;;
64936;SDS011;51452;47.698;19.050;2023-06-10T08:06:52;3.90;;;2.85;;
64936;SDS011;51452;47.698;19.050;2023-06-10T08:09:18;4.15;;;3.13;;
64936;SDS011;51452;47.698;19.050;2023-06-10T08:11:43;4.43;;;2.90;;
64936;SDS011;51452;47.698;19.050;2023-06-10T08:14:11;4.60;;;2.80;;
64936;SDS011;51452;47.698;19.050;2023-06-10T08:16:36;3.58;;;2.75;;
64936;SDS011;51452;47.698;19.050;2023-06-10T08:19:02;4.35;;;2.72;;
64936;SDS011;51452;47.698;19.050;2023-06-10T08:21:27;4.75;;;2.80;;
64936;SDS011;51452;47.698;19.050;2023-06-10T08:23:53;7.82;;;3.05;;
64936;SDS011;51452;47.698;19.050;2023-06-10T08:26:19;3.67;;;3.05;;
64936;SDS011;51452;47.698;19.050;2023-06-10T08:28:44;5.15;;;3.38;;
64936;SDS011;51452;47.698;19.050;2023-06-10T08:31:10;3.40;;;2.78;;
64936;SDS011;51452;47.698;19.050;2023-06-10T08:33:35;5.97;;;3.03;;
64936;SDS011;51452;47.698;19.050;2023-06-10T08:36:01;3.50;;;3.00;;
64936;SDS011;51452;47.698;19.050;2023-06-10T08:38:26;4.00;;;3.28;;
64936;SDS011;51452;47.698;19.050;2023-06-10T08:40:51;4.45;;;2.92;;
64936;SDS011;51452;47.698;19.050;2023-06-10T08:43:40;4.53;;;3.45;;
64936;SDS011;51452;47.698;19.050;2023-06-10T08:46:09;4.53;;;3.33;;
64936;SDS011;51452;47.698;19.050;2023-06-10T08:48:40;3.85;;;3.05;;
64936;SDS011;51452;47.698;19.050;2023-06-10T08:51:08;3.45;;;3.03;;
64936;SDS011;51452;47.698;19.050;2023-06-10T08:53:35;3.67;;;3.00;;
64936;SDS011;51452;47.698;19.050;2023-06-10T08:56:02;3.65;;;3.28;;
64936;SDS011;51452;47.698;19.050;2023-06-10T08:58:30;3.10;;;2.80;;
64936;SDS011;51452;47.698;19.050;2023-06-10T09:00:58;3.17;;;2.88;;
64936;SDS011;51452;47.698;19.050;2023-06-10T09:03:24;3.90;;;2.83;;
64936;SDS011;51452;47.698;19.050;2023-06-10T09:05:50;4.20;;;2.75;;
64936;SDS011;51452;47.698;19.050;2023-06-10T09:08:16;4.10;;;2.95;;
64936;SDS011;51452;47.698;19.050;2023-06-10T09:10:42;4.72;;;3.05;;
64936;SDS011;51452;47.698;19.050;2023-06-10T09:13:07;4.13;;;2.90;;
64936;SDS011;51452;47.698;19.050;2023-06-10T09:15:33;6.35;;;2.90;;
64936;SDS011;51452;47.698;19.050;2023-06-10T09:17:59;2.83;;;2.50;;
64936;SDS011;51452;47.698;19.050;2023-06-10T09:20:25;4.55;;;2.95;;
64936;SDS011;51452;47.698;19.050;2023-06-10T09:22:50;3.50;;;2.95;;
64936;SDS011;51452;47.698;19.050;2023-06-10T09:25:16;3.10;;;2.80;;
64936;SDS011;51452;47.698;19.050;2023-06-10T09:33:13;3.53;;;2.70;;
64936;SDS011;51452;47.698;19.050;2023-06-10T09:35:46;4.00;;;2.80;;
64936;SDS011;51452;47.698;19.050;2023-06-10T09:38:14;3.13;;;2.75;;
64936;SDS011;51452;47.698;19.050;2023-06-10T09:43:16;2.53;;;2.30;;
64936;SDS011;51452;47.698;19.050;2023-06-10T09:45:41;4.82;;;2.70;;
64936;SDS011;51452;47.698;19.050;2023-06-10T09:48:08;7.32;;;2.65;;
64936;SDS011;51452;47.698;19.050;2023-06-10T09:50:33;3.38;;;2.75;;
64936;SDS011;51452;47.698;19.050;2023-06-10T09:53:00;2.97;;;2.28;;
64936;SDS011;51452;47.698;19.050;2023-06-10T09:55:27;2.97;;;2.60;;
64936;SDS011;51452;47.698;19.050;2023-06-10T09:57:53;3.20;;;2.40;;
64936;SDS011;51452;47.698;19.050;2023-06-10T10:00:19;3.47;;;2.80;;
64936;SDS011;51452;47.698;19.050;2023-06-10T10:02:50;3.30;;;2.70;;
64936;SDS011;51452;47.698;19.050;2023-06-10T10:05:18;3.42;;;2.95;;
64936;SDS011;51452;47.698;19.050;2023-06-10T10:07:44;3.47;;;2.70;;
64936;SDS011;51452;47.698;19.050;2023-06-10T10:10:11;3.47;;;2.50;;
64936;SDS011;51452;47.698;19.050;2023-06-10T10:12:38;7.45;;;2.47;;
64936;SDS011;51452;47.698;19.050;2023-06-10T10:15:08;2.83;;;2.42;;
64936;SDS011;51452;47.698;19.050;2023-06-10T10:17:37;3.13;;;2.55;;
64936;SDS011;51452;47.698;19.050;2023-06-10T10:20:06;4.28;;;2.40;;
64936;SDS011;51452;47.698;19.050;2023-06-10T10:22:39;2.88;;;2.53;;
64936;SDS011;51452;47.698;19.050;2023-06-10T10:25:11;4.78;;;2.47;;
64936;SDS011;51452;47.698;19.050;2023-06-10T10:27:47;2.63;;;2.28;;
64936;SDS011;51452;47.698;19.050;2023-06-10T10:30:16;2.20;;;2.00;;
64936;SDS011;51452;47.698;19.050;2023-06-10T10:35:26;2.95;;;2.65;;
64936;SDS011;51452;47.698;19.050;2023-06-10T10:37:52;3.20;;;2.20;;
64936;SDS011;51452;47.698;19.050;2023-06-10T10:40:19;4.10;;;2.70;;
64936;SDS011;51452;47.698;19.050;2023-06-10T10:42:49;3.67;;;2.53;;
64936;SDS011;51452;47.698;19.050;2023-06-10T10:45:15;4.00;;;2.30;;
64936;SDS011;51452;47.698;19.050;2023-06-10T10:47:41;2.80;;;2.20;;
64936;SDS011;51452;47.698;19.050;2023-06-10T10:50:13;3.38;;;2.35;;
64936;SDS011;51452;47.698;19.050;2023-06-10T10:52:51;3.20;;;2.30;;
64936;SDS011;51452;47.698;19.050;2023-06-10T10:55:17;2.88;;;2.28;;
64936;SDS011;51452;47.698;19.050;2023-06-10T10:57:43;2.72;;;2.00;;
64936;SDS011;51452;47.698;19.050;2023-06-10T11:00:08;2.58;;;2.35;;
64936;SDS011;51452;47.698;19.050;2023-06-10T11:05:03;3.28;;;2.33;;
64936;SDS011;51452;47.698;19.050;2023-06-10T11:07:33;2.58;;;2.38;;
64936;SDS011;51452;47.698;19.050;2023-06-10T11:10:09;4.05;;;2.35;;
64936;SDS011;51452;47.698;19.050;2023-06-10T11:15:11;4.63;;;2.60;;
64936;SDS011;51452;47.698;19.050;2023-06-10T11:17:37;3.53;;;2.60;;
64936;SDS011;51452;47.698;19.050;2023-06-10T11:20:03;2.53;;;2.25;;
64936;SDS011;51452;47.698;19.050;2023-06-10T11:22:29;2.83;;;2.30;;
64936;SDS011;51452;47.698;19.050;2023-06-10T11:24:54;3.33;;;2.42;;
64936;SDS011;51452;47.698;19.050;2023-06-10T11:27:23;4.32;;;2.63;;
64936;SDS011;51452;47.698;19.050;2023-06-10T11:29:58;5.45;;;3.20;;
64936;SDS011;51452;47.698;19.050;2023-06-10T11:35:10;3.22;;;2.83;;
64936;SDS011;51452;47.698;19.050;2023-06-10T11:37:36;5.05;;;3.28;;
64936;SDS011;51452;47.698;19.050;2023-06-10T11:40:01;4.90;;;3.15;;
64936;SDS011;51452;47.698;19.050;2023-06-10T11:42:27;3.83;;;3.03;;
64936;SDS011;51452;47.698;19.050;2023-06-10T11:44:53;3.42;;;2.85;;
64936;SDS011;51452;47.698;19.050;2023-06-10T11:47:19;5.70;;;2.90;;
64936;SDS011;51452;47.698;19.050;2023-06-10T11:49:46;3.85;;;2.85;;
64936;SDS011;51452;47.698;19.050;2023-06-10T11:52:28;6.68;;;3.00;;
64936;SDS011;51452;47.698;19.050;2023-06-10T11:54:56;5.80;;;3.17;;
64936;SDS011;51452;47.698;19.050;2023-06-10T11:57:21;6.97;;;2.80;;
64936;SDS011;51452;47.698;19.050;2023-06-10T11:59:47;3.67;;;3.00;;
64936;SDS011;51452;47.698;19.050;2023-06-10T12:02:16;4.82;;;2.88;;
64936;SDS011;51452;47.698;19.050;2023-06-10T12:04:42;5.03;;;3.10;;
64936;SDS011;51452;47.698;19.050;2023-06-10T12:07:07;4.20;;;3.30;;
64936;SDS011;51452;47.698;19.050;2023-06-10T12:09:33;4.88;;;2.88;;
64936;SDS011;51452;47.698;19.050;2023-06-10T12:17:20;3.83;;;3.30;;
64936;SDS011;51452;47.698;19.050;2023-06-10T12:19:47;4.05;;;3.42;;
64936;SDS011;51452;47.698;19.050;2023-06-10T12:22:13;3.42;;;3.13;;
64936;SDS011;51452;47.698;19.050;2023-06-10T12:27:29;3.95;;;3.28;;
64936;SDS011;51452;47.698;19.050;2023-06-10T12:29:56;4.85;;;3.00;;
64936;SDS011;51452;47.698;19.050;2023-06-10T12:32:40;3.22;;;2.75;;
64936;SDS011;51452;47.698;19.050;2023-06-10T12:35:09;5.35;;;3.25;;
64936;SDS011;51452;47.698;19.050;2023-06-10T12:37:36;3.63;;;3.00;;
64936;SDS011;51452;47.698;19.050;2023-06-10T12:40:02;3.40;;;2.97;;
64936;SDS011;51452;47.698;19.050;2023-06-10T12:42:30;4.30;;;3.20;;
64936;SDS011;51452;47.698;19.050;2023-06-10T12:44:56;5.30;;;2.72;;
64936;SDS011;51452;47.698;19.050;2023-06-10T12:47:29;4.82;;;2.83;;
64936;SDS011;51452;47.698;19.050;2023-06-10T12:49:57;7.88;;;2.90;;
64936;SDS011;51452;47.698;19.050;2023-06-10T12:52:23;3.70;;;3.30;;
64936;SDS011;51452;47.698;19.050;2023-06-10T12:54:49;4.80;;;3.20;;
64936;SDS011;51452;47.698;19.050;2023-06-10T12:57:15;3.47;;;2.80;;
64936;SDS011;51452;47.698;19.050;2023-06-10T12:59:40;4.07;;;2.70;;
64936;SDS011;51452;47.698;19.050;2023-06-10T13:02:07;3.00;;;2.70;;
64936;SDS011;51452;47.698;19.050;2023-06-10T13:04:32;2.72;;;2.20;;
64936;SDS011;51452;47.698;19.050;2023-06-10T13:06:58;3.38;;;2.47;;
64936;SDS011;51452;47.698;19.050;2023-06-10T13:09:24;3.15;;;2.75;;
64936;SDS011;51452;47.698;19.050;2023-06-10T13:11:49;3.88;;;2.53;;
64936;SDS011;51452;47.698;19.050;2023-06-10T13:14:15;2.72;;;2.30;;
64936;SDS011;51452;47.698;19.050;2023-06-10T13:16:40;2.97;;;2.55;;
64936;SDS011;51452;47.698;19.050;2023-06-10T13:19:06;3.17;;;2.83;;
64936;SDS011;51452;47.698;19.050;2023-06-10T13:21:34;3.58;;;2.83;;
64936;SDS011;51452;47.698;19.050;2023-06-10T13:24:00;3.97;;;2.80;;
64936;SDS011;51452;47.698;19.050;2023-06-10T13:26:25;3.40;;;2.53;;
64936;SDS011;51452;47.698;19.050;2023-06-10T13:28:51;5.07;;;3.03;;
64936;SDS011;51452;47.698;19.050;2023-06-10T13:31:18;2.78;;;2.47;;
64936;SDS011;51452;47.698;19.050;2023-06-10T13:33:45;3.10;;;2.55;;
64936;SDS011;51452;47.698;19.050;2023-06-10T13:36:12;2.60;;;2.40;;
64936;SDS011;51452;47.698;19.050;2023-06-10T13:38:37;2.92;;;2.63;;
64936;SDS011;51452;47.698;19.050;2023-06-10T13:41:03;4.88;;;3.20;;
64936;SDS011;51452;47.698;19.050;2023-06-10T13:43:28;3.78;;;2.95;;
64936;SDS011;51452;47.698;19.050;2023-06-10T13:45:54;3.53;;;2.90;;
64936;SDS011;51452;47.698;19.050;2023-06-10T13:48:19;4.13;;;2.72;;
64936;SDS011;51452;47.698;19.050;2023-06-10T13:50:45;2.55;;;2.03;;
64936;SDS011;51452;47.698;19.050;2023-06-10T13:53:11;2.33;;;1.75;;
64936;SDS011;51452;47.698;19.050;2023-06-10T13:55:37;3.83;;;1.80;;
64936;SDS011;51452;47.698;19.050;2023-06-10T13:58:02;2.63;;;1.80;;
64936;SDS011;51452;47.698;19.050;2023-06-10T14:00:28;1.98;;;1.70;;
64936;SDS011;51452;47.698;19.050;2023-06-10T14:02:53;1.90;;;1.60;;
64936;SDS011;51452;47.698;19.050;2023-06-10T14:05:19;2.60;;;1.70;;
64936;SDS011;51452;47.698;19.050;2023-06-10T14:07:44;3.38;;;2.10;;
64936;SDS011;51452;47.698;19.050;2023-06-10T14:10:09;3.33;;;2.30;;
64936;SDS011;51452;47.698;19.050;2023-06-10T14:12:35;3.05;;;2.10;;
64936;SDS011;51452;47.698;19.050;2023-06-10T14:15:01;3.42;;;2.20;;
64936;SDS011;51452;47.698;19.050;2023-06-10T14:17:26;2.20;;;2.00;;
64936;SDS011;51452;47.698;19.050;2023-06-10T14:19:52;3.63;;;2.08;;
64936;SDS011;51452;47.698;19.050;2023-06-10T14:22:17;2.85;;;2.30;;
64936;SDS011;51452;47.698;19.050;2023-06-10T14:24:42;3.42;;;2.25;;
64936;SDS011;51452;47.698;19.050;2023-06-10T14:27:08;2.88;;;2.28;;
64936;SDS011;51452;47.698;19.050;2023-06-10T14:29:33;5.38;;;2.60;;
64936;SDS011;51452;47.698;19.050;2023-06-10T14:31:59;4.65;;;2.47;;
64936;SDS011;51452;47.698;19.050;2023-06-10T14:34:24;2.70;;;2.20;;
64936;SDS011;51452;47.698;19.050;2023-06-10T14:36:54;2.92;;;2.40;;
64936;SDS011;51452;47.698;19.050;2023-06-10T14:39:19;3.15;;;2.42;;
64936;SDS011;51452;47.698;19.050;2023-06-10T14:41:45;3.25;;;2.15;;
64936;SDS011;51452;47.698;19.050;2023-06-10T14:44:10;4.03;;;2.47;;
64936;SDS011;51452;47.698;19.050;2023-06-10T14:46:36;3.33;;;2.33;;
64936;SDS011;51452;47.698;19.050;2023-06-10T14:49:01;3.95;;;2.72;;
64936;SDS011;51452;47.698;19.050;2023-06-10T14:51:27;6.72;;;4.63;;
64936;SDS011;51452;47.698;19.050;2023-06-10T14:53:53;13.82;;;6.05;;
64936;SDS011;51452;47.698;19.050;2023-06-10T14:56:18;4.03;;;3.05;;
64936;SDS011;51452;47.698;19.050;2023-06-10T14:58:43;6.03;;;3.33;;
64936;SDS011;51452;47.698;19.050;2023-06-10T15:01:09;5.55;;;3.35;;
64936;SDS011;51452;47.698;19.050;2023-06-10T15:03:34;5.22;;;2.80;;